createdAt,value
2019-02-17T00:00:14.011Z,-0.30
2019-02-17T00:02:43.230Z,-0.30
2019-02-17T00:05:12.917Z,-0.40
2019-02-17T00:07:42.026Z,-0.40
2019-02-17T00:10:11.423Z,-0.50
2019-02-17T00:12:40.541Z,-0.50
2019-02-17T00:15:10.035Z,-0.40
2019-02-17T00:17:39.152Z,-0.50
2019-02-17T00:20:08.943Z,-0.50
2019-02-17T00:22:38.064Z,-0.50
2019-02-17T00:25:07.858Z,-0.50
2019-02-17T00:27:37.081Z,-0.50
2019-02-17T00:30:09.538Z,-0.40
2019-02-17T00:32:38.771Z,-0.40
2019-02-17T00:35:09.354Z,-0.50
2019-02-17T00:37:38.592Z,-0.60
2019-02-17T00:40:08.875Z,-0.60
2019-02-17T00:42:38.090Z,-0.60
2019-02-17T00:45:09.081Z,-0.70
2019-02-17T00:47:38.195Z,-0.60
2019-02-17T00:50:09.070Z,-0.70
2019-02-17T00:52:38.409Z,-0.60
2019-02-17T00:55:08.291Z,-0.70
2019-02-17T00:57:37.410Z,-0.80
2019-02-17T01:00:11.872Z,-0.80
2019-02-17T01:02:41.164Z,-0.80
2019-02-17T01:05:10.684Z,-0.80
2019-02-17T01:07:39.798Z,-0.80
2019-02-17T01:10:09.481Z,-0.80
2019-02-17T01:12:38.613Z,-0.70
2019-02-17T01:15:12.498Z,-0.80
2019-02-17T01:17:41.717Z,-0.80
2019-02-17T01:20:11.302Z,-0.80
2019-02-17T01:22:40.418Z,-0.70
2019-02-17T01:25:10.521Z,-0.80
2019-02-17T01:27:39.731Z,-0.80
2019-02-17T01:30:14.488Z,-0.80
2019-02-17T01:32:43.612Z,-0.90
2019-02-17T01:35:12.731Z,-0.90
2019-02-17T01:37:41.905Z,-0.90
2019-02-17T01:40:12.440Z,-0.90
2019-02-17T01:42:41.725Z,-0.90
2019-02-17T01:45:11.037Z,-0.90
2019-02-17T01:47:40.328Z,-1.00
2019-02-17T01:50:10.360Z,-1.00
2019-02-17T01:52:39.641Z,-1.00
2019-02-17T01:55:09.559Z,-1.10
2019-02-17T01:57:38.848Z,-1.10
2019-02-17T02:00:13.486Z,-1.10
2019-02-17T02:02:42.675Z,-1.10
2019-02-17T02:05:11.912Z,-1.10
2019-02-17T02:07:41.194Z,-1.10
2019-02-17T02:10:10.916Z,-1.20
2019-02-17T02:12:40.100Z,-1.10
2019-02-17T02:15:11.256Z,-1.10
2019-02-17T02:17:40.526Z,-1.20
2019-02-17T02:20:12.029Z,-1.20
2019-02-17T02:22:41.423Z,-1.10
2019-02-17T02:25:11.148Z,-1.10
2019-02-17T02:27:40.328Z,-1.00
2019-02-17T02:30:12.147Z,-1.00
2019-02-17T02:32:41.337Z,-1.10
2019-02-17T02:35:10.657Z,-1.20
2019-02-17T02:37:39.841Z,-1.20
2019-02-17T02:40:09.348Z,-1.20
2019-02-17T02:42:38.643Z,-1.20
2019-02-17T02:45:10.159Z,-1.20
2019-02-17T02:47:39.348Z,-1.20
2019-02-17T02:50:11.266Z,-1.30
2019-02-17T02:52:40.546Z,-1.30
2019-02-17T02:55:09.867Z,-1.30
2019-02-17T02:57:39.069Z,-1.30
2019-02-17T03:00:10.989Z,-1.30
2019-02-17T03:02:40.187Z,-1.40
2019-02-17T03:05:09.419Z,-1.40
2019-02-17T03:07:38.591Z,-1.40
2019-02-17T03:10:09.421Z,-1.50
2019-02-17T03:12:38.522Z,-1.50
2019-02-17T03:15:09.213Z,-1.50
2019-02-17T03:17:38.449Z,-1.50
2019-02-17T03:20:11.186Z,-1.60
2019-02-17T03:22:40.410Z,-1.60
2019-02-17T03:25:09.811Z,-1.60
2019-02-17T03:27:38.928Z,-1.60
2019-02-17T03:30:10.441Z,-1.60
2019-02-17T03:32:39.563Z,-1.60
2019-02-17T03:35:09.258Z,-1.60
2019-02-17T03:37:38.363Z,-1.70
2019-02-17T03:40:09.279Z,-1.70
2019-02-17T03:42:38.489Z,-1.70
2019-02-17T03:45:10.102Z,-1.70
2019-02-17T03:47:39.344Z,-1.70
2019-02-17T03:50:09.027Z,-1.70
2019-02-17T03:52:38.243Z,-1.70
2019-02-17T03:55:07.644Z,-1.70
2019-02-17T03:57:36.862Z,-1.70
2019-02-17T04:00:16.585Z,-1.60
2019-02-17T04:02:38.618Z,-1.70
2019-02-17T04:05:08.204Z,-1.60
2019-02-17T04:07:37.442Z,-1.60
2019-02-17T04:10:07.627Z,-1.60
2019-02-17T04:12:36.759Z,-1.70
2019-02-17T04:15:06.952Z,-1.80
2019-02-17T04:17:36.072Z,-1.90
2019-02-17T04:20:06.186Z,-1.90
2019-02-17T04:22:35.515Z,-1.90
2019-02-17T04:25:05.789Z,-1.90
2019-02-17T04:27:35.018Z,-2.00
2019-02-17T04:30:04.922Z,-2.00
2019-02-17T04:32:34.147Z,-1.90
2019-02-17T04:35:03.437Z,-1.90
2019-02-17T04:37:32.667Z,-1.90
2019-02-17T04:40:01.962Z,-1.90
2019-02-17T04:42:31.242Z,-1.90
2019-02-17T04:45:00.578Z,-2.00
2019-02-17T04:47:29.696Z,-2.00
2019-02-17T04:49:59.009Z,-2.10
2019-02-17T04:52:28.232Z,-2.10
2019-02-17T04:54:57.349Z,-2.00
2019-02-17T04:57:26.753Z,-2.00
2019-02-17T04:59:55.868Z,-2.00
2019-02-17T05:02:25.154Z,-2.00
2019-02-17T05:04:54.275Z,-2.00
2019-02-17T05:07:23.570Z,-2.10
2019-02-17T05:09:52.914Z,-2.10
2019-02-17T05:12:22.093Z,-2.20
2019-02-17T05:14:51.215Z,-2.20
2019-02-17T05:17:20.416Z,-2.20
2019-02-17T05:19:49.734Z,-2.20
2019-02-17T05:22:19.037Z,-2.20
2019-02-17T05:24:48.359Z,-2.20
2019-02-17T05:27:17.542Z,-2.20
2019-02-17T05:29:46.678Z,-2.20
2019-02-17T05:32:15.853Z,-2.20
2019-02-17T05:34:44.972Z,-2.20
2019-02-17T05:37:14.162Z,-2.20
2019-02-17T05:39:43.282Z,-2.30
2019-02-17T05:42:12.572Z,-2.30
2019-02-17T05:44:41.698Z,-2.30
2019-02-17T05:47:10.865Z,-2.40
2019-02-17T05:49:39.996Z,-2.30
2019-02-17T05:52:09.158Z,-2.30
2019-02-17T05:54:38.285Z,-2.30
2019-02-17T05:57:07.557Z,-2.40
2019-02-17T05:59:36.679Z,-2.40
2019-02-17T06:02:05.952Z,-2.30
2019-02-17T06:04:35.096Z,-2.40
2019-02-17T06:07:04.292Z,-2.30
2019-02-17T06:09:33.407Z,-2.40
2019-02-17T06:12:02.726Z,-2.50
2019-02-17T06:14:31.993Z,-2.50
2019-02-17T06:17:01.180Z,-2.50
2019-02-17T06:19:30.409Z,-2.60
2019-02-17T06:21:59.598Z,-2.50
2019-02-17T06:24:28.768Z,-2.40
2019-02-17T06:26:57.993Z,-2.40
2019-02-17T06:29:27.305Z,-2.50
2019-02-17T06:31:56.473Z,-2.50
2019-02-17T06:34:25.866Z,-2.40
2019-02-17T06:36:55.347Z,-2.40
2019-02-17T06:39:24.658Z,-2.30
2019-02-17T06:41:53.879Z,-2.30
2019-02-17T06:44:23.080Z,-2.30
2019-02-17T06:46:53.907Z,-2.20
2019-02-17T06:49:23.210Z,-2.10
2019-02-17T06:51:52.439Z,-2.00
2019-02-17T06:54:21.836Z,-1.90
2019-02-17T06:56:58.606Z,-1.70
2019-02-17T06:59:27.985Z,-1.50
2019-02-17T07:01:57.103Z,-1.30
2019-02-17T07:04:27.868Z,-1.10
2019-02-17T07:06:58.584Z,-0.80
2019-02-17T07:09:27.761Z,-0.40
2019-02-17T07:11:57.055Z,0.10
2019-02-17T07:14:26.274Z,0.60
2019-02-17T07:16:55.494Z,0.80
2019-02-17T07:19:24.768Z,1.00
2019-02-17T07:21:53.875Z,1.50
2019-02-17T07:24:23.175Z,2.00
2019-02-17T07:26:52.390Z,2.80
2019-02-17T07:29:21.573Z,3.50
2019-02-17T07:31:50.803Z,4.10
2019-02-17T07:34:20.093Z,4.00
2019-02-17T07:36:49.320Z,3.70
2019-02-17T07:39:18.500Z,3.30
2019-02-17T07:41:47.927Z,3.00
2019-02-17T07:44:17.120Z,2.80
2019-02-17T07:46:46.322Z,2.80
2019-02-17T07:49:15.625Z,2.80
2019-02-17T07:51:44.737Z,3.00
2019-02-17T07:54:13.928Z,3.70
2019-02-17T07:56:43.049Z,5.10
2019-02-17T07:59:12.240Z,6.80
2019-02-17T08:01:45.226Z,8.20
2019-02-17T08:04:12.298Z,9.10
2019-02-17T08:06:53.442Z,9.70
2019-02-17T08:09:22.971Z,10.20
2019-02-17T08:11:52.181Z,10.50
2019-02-17T08:14:21.410Z,10.40
2019-02-17T08:16:50.599Z,9.40
2019-02-17T08:19:19.814Z,9.00
2019-02-17T08:21:49.114Z,9.20
2019-02-17T08:24:18.226Z,9.50
2019-02-17T08:26:47.410Z,9.70
2019-02-17T08:29:16.837Z,9.30
2019-02-17T08:31:54.933Z,8.70
2019-02-17T08:34:16.782Z,7.90
2019-02-17T08:36:46.210Z,6.90
2019-02-17T08:39:15.389Z,6.50
2019-02-17T08:41:44.679Z,6.60
2019-02-17T08:44:13.895Z,6.50
2019-02-17T08:46:45.062Z,6.40
2019-02-17T08:49:14.130Z,6.50
2019-02-17T08:51:43.434Z,6.70
2019-02-17T08:54:12.648Z,6.90
2019-02-17T08:56:42.129Z,7.10
2019-02-17T08:59:11.357Z,7.20
2019-02-17T09:01:40.761Z,7.20
2019-02-17T09:04:10.085Z,7.20
2019-02-17T09:06:39.474Z,7.20
2019-02-17T09:09:08.797Z,7.30
2019-02-17T09:11:38.189Z,7.30
2019-02-17T09:14:07.508Z,7.20
2019-02-17T09:16:36.798Z,6.90
2019-02-17T09:19:06.009Z,6.80
2019-02-17T09:21:35.391Z,7.10
2019-02-17T09:24:04.713Z,7.20
2019-02-17T09:26:33.998Z,7.30
2019-02-17T09:29:03.116Z,7.50
2019-02-17T09:31:32.530Z,7.80
2019-02-17T09:34:01.767Z,7.90
2019-02-17T09:36:30.881Z,8.10
2019-02-17T09:39:00.180Z,8.10
2019-02-17T09:41:29.301Z,8.00
2019-02-17T09:43:58.579Z,8.40
2019-02-17T09:46:27.908Z,8.70
2019-02-17T09:48:57.194Z,9.00
2019-02-17T09:51:26.515Z,9.30
2019-02-17T09:53:55.809Z,9.40
2019-02-17T09:56:25.020Z,9.60
2019-02-17T09:58:54.352Z,9.60
2019-02-17T10:01:23.680Z,9.70
2019-02-17T10:03:52.979Z,9.80
2019-02-17T10:06:22.136Z,9.90
2019-02-17T10:08:51.473Z,10.10
2019-02-17T10:11:20.797Z,10.10
2019-02-17T10:13:49.990Z,10.20
2019-02-17T10:16:19.115Z,10.30
2019-02-17T10:18:48.410Z,10.40
2019-02-17T10:21:17.523Z,10.40
2019-02-17T10:23:46.708Z,10.20
2019-02-17T10:26:15.852Z,10.20
2019-02-17T10:28:45.036Z,10.40
2019-02-17T10:31:14.154Z,10.60
2019-02-17T10:33:43.351Z,10.80
2019-02-17T10:36:12.569Z,10.90
2019-02-17T10:38:41.760Z,11.00
2019-02-17T10:41:10.878Z,11.10
2019-02-17T10:43:40.092Z,11.10
2019-02-17T10:46:09.221Z,11.20
2019-02-17T10:48:38.433Z,11.10
2019-02-17T10:51:07.741Z,11.20
2019-02-17T10:53:36.855Z,11.30
2019-02-17T10:56:06.043Z,11.30
2019-02-17T10:58:35.162Z,11.00
2019-02-17T11:01:04.751Z,11.00
2019-02-17T11:03:33.879Z,11.20
2019-02-17T11:06:03.169Z,11.30
2019-02-17T11:08:32.388Z,11.40
2019-02-17T11:11:01.567Z,11.50
2019-02-17T11:13:30.686Z,11.70
2019-02-17T11:15:59.865Z,11.80
2019-02-17T11:18:29.031Z,11.80
2019-02-17T11:20:58.228Z,12.00
2019-02-17T11:23:27.356Z,12.10
2019-02-17T11:25:56.664Z,12.00
2019-02-17T11:28:25.792Z,12.10
2019-02-17T11:30:55.058Z,12.20
2019-02-17T11:33:24.186Z,12.30
2019-02-17T11:35:53.374Z,12.40
2019-02-17T11:38:22.480Z,12.50
2019-02-17T11:40:51.771Z,12.40
2019-02-17T11:43:20.882Z,12.50
2019-02-17T11:45:50.070Z,12.50
2019-02-17T11:48:19.191Z,12.70
2019-02-17T11:50:48.366Z,12.80
2019-02-17T11:53:17.485Z,12.80
2019-02-17T11:55:46.677Z,12.90
2019-02-17T11:58:17.192Z,12.90
2019-02-17T12:00:46.579Z,12.90
2019-02-17T12:03:15.896Z,13.00
2019-02-17T12:05:45.124Z,13.10
2019-02-17T12:08:14.419Z,13.10
2019-02-17T12:10:43.753Z,13.20
2019-02-17T12:13:13.056Z,13.40
2019-02-17T12:15:42.483Z,13.60
2019-02-17T12:18:11.671Z,13.50
2019-02-17T12:20:48.236Z,13.60
2019-02-17T12:23:21.983Z,13.70
2019-02-17T12:25:52.678Z,13.90
2019-02-17T12:28:23.416Z,14.00
2019-02-17T12:30:52.741Z,14.00
2019-02-17T12:33:22.105Z,14.10
2019-02-17T12:35:51.242Z,14.20
2019-02-17T12:38:20.439Z,14.20
2019-02-17T12:40:49.545Z,14.20
2019-02-17T12:43:18.937Z,14.20
2019-02-17T12:45:48.257Z,14.00
2019-02-17T12:48:17.445Z,14.00
2019-02-17T12:50:46.664Z,14.10
2019-02-17T12:53:15.855Z,14.20
2019-02-17T12:55:44.973Z,14.30
2019-02-17T12:58:14.151Z,14.40
2019-02-17T13:00:43.275Z,14.40
2019-02-17T13:03:12.550Z,14.30
2019-02-17T13:05:41.884Z,14.30
2019-02-17T13:08:11.065Z,14.30
2019-02-17T13:10:40.288Z,14.40
2019-02-17T13:13:09.569Z,14.50
2019-02-17T13:15:38.779Z,14.70
2019-02-17T13:18:07.899Z,14.80
2019-02-17T13:20:37.179Z,14.90
2019-02-17T13:23:06.296Z,14.90
2019-02-17T13:25:35.472Z,14.90
2019-02-17T13:28:04.784Z,14.80
2019-02-17T13:30:34.079Z,14.70
2019-02-17T13:33:03.293Z,14.90
2019-02-17T13:35:32.473Z,14.90
2019-02-17T13:38:01.701Z,15.00
2019-02-17T13:40:30.890Z,15.00
2019-02-17T13:43:00.203Z,14.80
2019-02-17T13:45:29.382Z,14.70
2019-02-17T13:47:58.491Z,14.70
2019-02-17T13:50:27.785Z,14.70
2019-02-17T13:52:56.908Z,14.80
2019-02-17T13:55:26.079Z,14.70
2019-02-17T13:57:55.201Z,14.80
2019-02-17T14:00:24.384Z,14.80
2019-02-17T14:02:53.507Z,14.90
2019-02-17T14:05:22.696Z,14.90
2019-02-17T14:07:51.820Z,14.90
2019-02-17T14:10:20.999Z,14.90
2019-02-17T14:12:50.209Z,14.90
2019-02-17T14:15:20.298Z,14.80
2019-02-17T14:17:49.606Z,14.80
2019-02-17T14:20:18.993Z,14.80
2019-02-17T14:22:48.106Z,14.80
2019-02-17T14:25:17.282Z,14.70
2019-02-17T14:27:46.413Z,14.60
2019-02-17T14:30:19.996Z,14.60
2019-02-17T14:32:49.092Z,14.40
2019-02-17T14:35:18.381Z,14.40
2019-02-17T14:37:47.593Z,14.30
2019-02-17T14:40:17.073Z,14.20
2019-02-17T14:42:46.207Z,14.20
2019-02-17T14:45:16.567Z,14.10
2019-02-17T14:47:45.887Z,14.10
2019-02-17T14:50:15.107Z,14.10
2019-02-17T14:52:45.741Z,14.00
2019-02-17T14:55:15.097Z,13.90
2019-02-17T14:57:44.289Z,13.80
2019-02-17T15:00:16.872Z,13.70
2019-02-17T15:02:46.245Z,13.60
2019-02-17T15:05:15.662Z,13.50
2019-02-17T15:07:44.957Z,13.40
2019-02-17T15:10:14.972Z,13.30
2019-02-17T15:12:44.253Z,13.20
2019-02-17T15:15:14.876Z,13.00
2019-02-17T15:17:44.268Z,12.90
2019-02-17T15:20:26.035Z,12.80
2019-02-17T15:22:55.211Z,12.70
2019-02-17T15:25:24.646Z,12.60
2019-02-17T15:27:54.043Z,12.50
2019-02-17T15:30:23.271Z,12.50
2019-02-17T15:32:52.676Z,12.30
2019-02-17T15:35:22.481Z,12.20
2019-02-17T15:37:51.799Z,12.10
2019-02-17T15:40:21.022Z,12.00
2019-02-17T15:42:50.439Z,11.90
2019-02-17T15:45:19.656Z,11.80
2019-02-17T15:47:48.930Z,11.60
2019-02-17T15:50:18.166Z,11.60
2019-02-17T15:52:47.462Z,11.40
2019-02-17T15:55:16.850Z,11.30
2019-02-17T15:57:46.189Z,11.20
2019-02-17T16:00:16.810Z,11.10
2019-02-17T16:02:46.441Z,11.00
2019-02-17T16:05:15.879Z,11.00
2019-02-17T16:07:45.383Z,10.90
2019-02-17T16:10:15.923Z,10.80
2019-02-17T16:12:45.307Z,10.70
2019-02-17T16:15:20.554Z,10.50
2019-02-17T16:17:50.078Z,10.50
2019-02-17T16:20:19.399Z,10.40
2019-02-17T16:22:48.964Z,10.30
2019-02-17T16:25:18.288Z,10.10
2019-02-17T16:27:47.574Z,10.10
2019-02-17T16:30:18.896Z,10.10
2019-02-17T16:32:48.178Z,10.00
2019-02-17T16:35:17.648Z,9.80
2019-02-17T16:37:46.961Z,9.50
2019-02-17T16:40:17.196Z,9.10
2019-02-17T16:42:46.515Z,8.80
2019-02-17T16:50:57.097Z,8.20
2019-02-17T16:53:26.374Z,8.00
2019-02-17T16:55:55.483Z,7.90
2019-02-17T16:58:24.994Z,7.70
2019-02-17T17:00:54.214Z,7.60
2019-02-17T17:03:23.614Z,7.50
2019-02-17T17:05:52.852Z,7.40
2019-02-17T17:08:21.961Z,7.20
2019-02-17T17:10:51.253Z,7.10
2019-02-17T17:13:20.576Z,7.00
2019-02-17T17:15:49.748Z,6.80
2019-02-17T17:18:18.864Z,6.60
2019-02-17T17:20:48.137Z,6.50
2019-02-17T17:23:17.248Z,6.30
2019-02-17T17:25:46.726Z,6.20
2019-02-17T17:28:16.051Z,6.00
2019-02-17T17:30:45.222Z,5.90
2019-02-17T17:33:14.552Z,5.70
2019-02-17T17:35:43.736Z,5.60
2019-02-17T17:38:12.850Z,5.50
2019-02-17T17:40:42.032Z,5.40
2019-02-17T17:43:11.152Z,5.30
2019-02-17T17:45:40.336Z,5.20
2019-02-17T17:48:09.568Z,5.10
2019-02-17T17:50:38.836Z,5.00
2019-02-17T17:53:08.047Z,4.90
2019-02-17T17:55:37.222Z,4.80
2019-02-17T17:58:06.331Z,4.80
2019-02-17T18:00:37.178Z,4.70
2019-02-17T18:03:06.386Z,4.60
2019-02-17T18:05:35.557Z,4.50
2019-02-17T18:08:04.677Z,4.50
2019-02-17T18:10:33.842Z,4.40
2019-02-17T18:13:02.951Z,4.30
2019-02-17T18:15:32.248Z,4.30
2019-02-17T18:18:01.434Z,4.20
2019-02-17T18:20:30.703Z,4.20
2019-02-17T18:22:59.904Z,4.20
2019-02-17T18:25:29.425Z,4.20
2019-02-17T18:27:58.732Z,4.10
2019-02-17T18:30:27.836Z,4.10
2019-02-17T18:32:57.014Z,4.00
2019-02-17T18:35:26.143Z,4.00
2019-02-17T18:37:55.543Z,3.90
2019-02-17T18:40:24.879Z,3.90
2019-02-17T18:42:54.171Z,3.80
2019-02-17T18:45:24.539Z,3.70
2019-02-17T18:47:53.816Z,3.60
2019-02-17T18:50:22.946Z,3.50
2019-02-17T18:52:52.246Z,3.40
2019-02-17T18:55:21.470Z,3.40
2019-02-17T18:57:51.218Z,3.40
2019-02-17T19:00:27.506Z,3.40
2019-02-17T19:02:56.775Z,3.30
2019-02-17T19:05:32.023Z,3.30
2019-02-17T19:07:56.715Z,3.30
2019-02-17T19:10:25.926Z,3.20
2019-02-17T19:12:55.211Z,3.20
2019-02-17T19:15:24.532Z,3.10
2019-02-17T19:17:53.817Z,3.10
2019-02-17T19:20:25.872Z,3.10
2019-02-17T19:22:55.154Z,3.00
2019-02-17T19:25:24.272Z,2.90
2019-02-17T19:27:53.464Z,2.90
2019-02-17T19:30:22.772Z,2.90
2019-02-17T19:32:58.245Z,2.70
2019-02-17T19:35:42.026Z,2.70
2019-02-17T19:38:06.892Z,2.70
2019-02-17T19:40:36.006Z,2.70
2019-02-17T19:43:06.285Z,2.60
2019-02-17T19:45:35.403Z,2.60
2019-02-17T19:48:04.684Z,2.50
2019-02-17T19:50:33.802Z,2.40
2019-02-17T19:53:03.078Z,2.30
2019-02-17T19:55:32.302Z,2.20
2019-02-17T19:58:01.482Z,2.10
2019-02-17T20:00:30.819Z,2.10
2019-02-17T20:03:01.590Z,2.00
2019-02-17T20:05:35.345Z,2.00
2019-02-17T20:08:05.050Z,2.00
2019-02-17T20:10:34.438Z,1.90
2019-02-17T20:13:03.560Z,1.80
2019-02-17T20:15:34.533Z,1.70
2019-02-17T20:18:03.656Z,1.70
2019-02-17T20:20:32.841Z,1.60
2019-02-17T20:23:02.060Z,1.60
2019-02-17T20:25:31.243Z,1.60
2019-02-17T20:28:00.454Z,1.60
2019-02-17T20:30:29.846Z,1.50
2019-02-17T20:32:58.952Z,1.50
2019-02-17T20:35:28.142Z,1.50
2019-02-17T20:37:57.259Z,1.40
2019-02-17T20:40:26.441Z,1.40
2019-02-17T20:42:55.658Z,1.40
2019-02-17T20:45:24.841Z,1.40
2019-02-17T20:47:53.958Z,1.30
2019-02-17T20:50:23.230Z,1.30
2019-02-17T20:52:52.353Z,1.30
2019-02-17T20:55:21.532Z,1.20
2019-02-17T20:57:50.668Z,1.20
2019-02-17T21:00:26.954Z,1.20
2019-02-17T21:02:56.377Z,1.20
2019-02-17T21:05:25.658Z,1.20
2019-02-17T21:07:54.776Z,1.20
2019-02-17T21:10:24.065Z,1.10
2019-02-17T21:12:53.384Z,1.10
2019-02-17T21:15:22.964Z,1.10
2019-02-17T21:17:52.192Z,1.10
2019-02-17T21:20:21.888Z,1.20
2019-02-17T21:22:52.937Z,1.10
2019-02-17T21:25:21.833Z,1.20
2019-02-17T21:27:51.063Z,1.10
2019-02-17T21:30:20.843Z,1.00
2019-02-17T21:32:49.964Z,0.90
2019-02-17T21:35:19.162Z,0.90
2019-02-17T21:37:48.491Z,0.80
2019-02-17T21:40:17.781Z,0.80
2019-02-17T21:42:46.904Z,0.80
2019-02-17T21:45:16.812Z,0.70
2019-02-17T21:47:46.098Z,0.70
2019-02-17T21:50:15.919Z,0.70
2019-02-17T21:52:45.113Z,0.60
2019-02-17T21:55:15.126Z,0.60
2019-02-17T21:57:44.500Z,0.60
2019-02-17T22:00:21.320Z,0.60
2019-02-17T22:02:50.695Z,0.60
2019-02-17T22:05:20.410Z,0.60
2019-02-17T22:07:49.690Z,0.60
2019-02-17T22:10:20.008Z,0.60
2019-02-17T22:12:51.151Z,0.50
2019-02-17T22:15:21.539Z,0.50
2019-02-17T22:17:50.724Z,0.50
2019-02-17T22:20:19.824Z,0.50
2019-02-17T22:22:48.999Z,0.40
2019-02-17T22:25:18.424Z,0.40
2019-02-17T22:27:47.606Z,0.40
2019-02-17T22:30:17.130Z,0.40
2019-02-17T22:32:46.411Z,0.40
2019-02-17T22:35:15.749Z,0.40
2019-02-17T22:37:44.912Z,0.30
2019-02-17T22:40:15.338Z,0.30
2019-02-17T22:42:44.825Z,0.30
2019-02-17T22:45:14.257Z,0.30
2019-02-17T22:47:43.517Z,0.30
2019-02-17T22:50:16.027Z,0.30
2019-02-17T22:52:46.663Z,0.40
2019-02-17T22:55:15.878Z,0.30
2019-02-17T22:57:45.069Z,0.30
2019-02-17T23:00:27.617Z,0.30
2019-02-17T23:02:56.995Z,0.30
2019-02-17T23:05:26.219Z,0.20
2019-02-17T23:07:55.510Z,0.20
2019-02-17T23:10:24.721Z,0.10
2019-02-17T23:12:53.912Z,0.00
2019-02-17T23:15:23.012Z,0.10
2019-02-17T23:17:52.192Z,0.00
2019-02-17T23:20:21.319Z,-0.10
2019-02-17T23:22:50.432Z,0.00
2019-02-17T23:25:19.802Z,0.00
2019-02-17T23:27:48.926Z,-0.10
2019-02-17T23:30:18.104Z,-0.10
2019-02-17T23:32:47.334Z,-0.10
2019-02-17T23:35:16.604Z,-0.10
2019-02-17T23:37:45.736Z,-0.10
2019-02-17T23:40:15.226Z,-0.20
2019-02-17T23:42:44.444Z,-0.20
2019-02-17T23:45:14.736Z,-0.20
2019-02-17T23:47:44.057Z,-0.20
2019-02-17T23:50:14.337Z,-0.20
2019-02-17T23:52:43.481Z,-0.20
2019-02-17T23:55:13.067Z,-0.30
2019-02-17T23:57:42.189Z,-0.30
